createdAt,value
2022-08-17T00:02:43.659Z,12.2
2022-08-17T00:08:00.074Z,10.1
2022-08-17T00:13:10.463Z,11.4
2022-08-17T00:19:06.566Z,11.8
2022-08-17T00:23:19.486Z,13.0
2022-08-17T00:28:25.863Z,14.3
2022-08-17T00:33:32.359Z,13.5
2022-08-17T00:38:42.745Z,13.6
2022-08-17T00:43:35.096Z,12.5
2022-08-17T00:48:51.529Z,11.7
2022-08-17T00:53:57.902Z,15.1
2022-08-17T00:59:04.275Z,15.4
2022-08-17T01:04:11.259Z,14.2
2022-08-17T01:09:17.627Z,12.5
2022-08-17T01:14:24.002Z,14.5
2022-08-17T01:19:30.463Z,13.1
2022-08-17T01:24:36.935Z,13.6
2022-08-17T01:29:43.434Z,14.5
2022-08-17T01:34:50.674Z,16.2
2022-08-17T01:39:56.370Z,15.3
2022-08-17T01:45:02.660Z,12.4
2022-08-17T01:50:09.079Z,17.7
2022-08-17T01:55:15.454Z,15.6
2022-08-17T02:00:21.829Z,17.9
2022-08-17T02:05:28.230Z,15.7
2022-08-17T02:10:24.609Z,15.1
2022-08-17T02:15:41.008Z,13.8
2022-08-17T02:20:47.530Z,12.8
2022-08-17T02:25:54.060Z,15.9
2022-08-17T02:31:04.003Z,17.3
2022-08-17T02:36:10.386Z,17.5
2022-08-17T02:41:16.761Z,17.9
2022-08-17T02:46:13.115Z,14.8
2022-08-17T02:51:19.651Z,15.9
2022-08-17T02:56:36.047Z,15.8
2022-08-17T03:01:42.494Z,15.3
2022-08-17T03:06:48.915Z,17.7
2022-08-17T03:11:55.958Z,16.3
2022-08-17T03:17:01.804Z,16.9
2022-08-17T03:22:36.146Z,16.0
2022-08-17T03:27:18.583Z,15.5
2022-08-17T03:32:24.960Z,19.1
2022-08-17T03:37:27.342Z,19.3
2022-08-17T03:43:07.960Z,25.0
2022-08-17T03:48:15.320Z,18.4
2022-08-17T03:54:33.829Z,18.7
2022-08-17T03:58:28.071Z,18.4
2022-08-17T04:03:58.594Z,21.6
2022-08-17T04:09:04.980Z,21.0
2022-08-17T04:13:47.438Z,21.9
2022-08-17T04:18:53.818Z,25.1
2022-08-17T04:24:14.236Z,22.1
2022-08-17T04:28:56.577Z,21.4
2022-08-17T04:34:12.970Z,21.7
2022-08-17T04:39:09.353Z,21.9
2022-08-17T04:44:36.759Z,20.7
2022-08-17T04:49:32.158Z,22.4
2022-08-17T04:54:38.560Z,21.3
2022-08-17T04:59:44.937Z,21.9
2022-08-17T05:04:51.315Z,22.4
2022-08-17T05:09:57.723Z,23.3
2022-08-17T05:15:08.113Z,24.5
2022-08-17T05:20:10.508Z,21.0
2022-08-17T05:25:37.441Z,23.1
2022-08-17T05:30:23.308Z,24.6
2022-08-17T05:35:49.693Z,23.7
2022-08-17T05:40:36.044Z,20.8
2022-08-17T05:45:55.147Z,25.5
2022-08-17T05:50:48.855Z,21.5
2022-08-17T05:56:28.007Z,23.7
2022-08-17T06:01:01.836Z,20.5
2022-08-17T06:06:31.084Z,22.0
2022-08-17T06:11:14.451Z,19.2
2022-08-17T06:16:32.978Z,22.8
2022-08-17T06:21:32.170Z,18.8
2022-08-17T06:26:38.544Z,19.9
2022-08-17T06:31:40.258Z,18.9
2022-08-17T06:36:46.728Z,17.4
2022-08-17T06:41:43.095Z,15.3
2022-08-17T06:46:49.448Z,13.4
2022-08-17T06:51:55.837Z,12.6
2022-08-17T06:57:02.214Z,12.4
2022-08-17T07:02:18.619Z,13.2
2022-08-17T07:07:15.009Z,14.1
2022-08-17T07:12:31.605Z,10.8
2022-08-17T07:17:47.474Z,11.5
2022-08-17T07:22:57.596Z,9.2
2022-08-17T07:27:51.113Z,9.0
2022-08-17T07:32:47.273Z,10.7
2022-08-17T07:37:53.662Z,9.3
2022-08-17T07:43:14.031Z,7.7
2022-08-17T07:48:16.567Z,8.9
2022-08-17T07:53:22.968Z,7.9
2022-08-17T07:58:19.320Z,6.7
2022-08-17T08:03:59.775Z,7.0
2022-08-17T08:08:42.157Z,5.6
2022-08-17T08:13:48.514Z,5.9
2022-08-17T08:18:57.207Z,5.5
2022-08-17T08:24:01.371Z,7.1
2022-08-17T08:29:07.793Z,5.7
2022-08-17T08:34:04.247Z,5.7
2022-08-17T08:39:20.662Z,5.3
2022-08-17T08:44:59.739Z,10.6
2022-08-17T08:50:02.117Z,5.9
2022-08-17T08:55:03.062Z,5.8
2022-08-17T08:59:51.182Z,4.1
2022-08-17T09:05:13.310Z,4.3
2022-08-17T09:09:59.627Z,5.1
2022-08-17T09:14:55.603Z,4.1
2022-08-17T09:20:12.162Z,5.9
2022-08-17T09:25:18.578Z,4.4
2022-08-17T09:30:14.938Z,4.7
2022-08-17T09:35:51.370Z,5.1
2022-08-17T09:40:37.727Z,4.8
2022-08-17T09:45:34.085Z,4.8
2022-08-17T09:51:03.248Z,4.7
2022-08-17T09:56:16.939Z,4.9
2022-08-17T10:00:53.327Z,3.5
2022-08-17T10:06:08.656Z,5.4
2022-08-17T10:11:06.012Z,4.4
2022-08-17T10:16:22.416Z,4.9
2022-08-17T10:22:01.189Z,5.1
2022-08-17T10:26:25.283Z,4.7
2022-08-17T10:31:41.707Z,3.9
2022-08-17T10:37:48.184Z,4.7
2022-08-17T10:41:54.455Z,4.3
2022-08-17T10:48:04.091Z,4.8
2022-08-17T10:52:45.294Z,4.7
2022-08-17T10:58:51.909Z,4.5
2022-08-17T11:03:42.274Z,5.9
2022-08-17T11:08:28.607Z,5.2
2022-08-17T11:13:10.932Z,4.2
2022-08-17T11:18:17.353Z,5.2
2022-08-17T11:23:23.748Z,3.8
2022-08-17T11:28:30.193Z,4.7
2022-08-17T11:33:38.193Z,5.3
2022-08-17T11:38:43.060Z,4.1
2022-08-17T11:44:09.476Z,6.1
2022-08-17T11:48:55.832Z,4.6
2022-08-17T11:54:31.047Z,5.5
2022-08-17T11:59:51.663Z,5.5
2022-08-17T12:04:15.052Z,4.7
2022-08-17T12:09:11.434Z,4.4
2022-08-17T12:15:09.617Z,4.1
2022-08-17T12:19:34.253Z,5.6
2022-08-17T12:24:40.615Z,3.7
2022-08-17T12:29:38.757Z,3.4
2022-08-17T12:34:53.353Z,2.7
2022-08-17T12:39:49.747Z,3.4
2022-08-17T12:45:06.135Z,2.6
2022-08-17T12:50:37.080Z,4.2
2022-08-17T12:55:09.384Z,4.3
2022-08-17T13:00:25.776Z,3.0
2022-08-17T13:05:22.135Z,3.8
2022-08-17T13:10:58.578Z,3.2
2022-08-17T13:16:08.988Z,3.1
2022-08-17T13:21:05.331Z,3.4
2022-08-17T13:25:57.698Z,3.0
2022-08-17T13:31:24.130Z,4.6
2022-08-17T13:36:10.510Z,3.9
2022-08-17T13:41:16.911Z,3.0
2022-08-17T13:46:23.332Z,5.4
2022-08-17T13:51:29.717Z,5.1
2022-08-17T13:56:38.338Z,9.1
2022-08-17T14:01:42.550Z,12.5
2022-08-17T14:06:51.740Z,17.0
2022-08-17T14:11:54.240Z,12.5
2022-08-17T14:17:01.639Z,14.7
2022-08-17T14:21:58.101Z,13.3
2022-08-17T14:27:14.520Z,16.1
2022-08-17T14:32:20.879Z,15.6
2022-08-17T14:37:51.566Z,14.7
2022-08-17T14:42:33.631Z,12.7
2022-08-17T14:47:40.017Z,13.4
2022-08-17T14:52:46.424Z,13.5
2022-08-17T14:57:53.081Z,11.6
2022-08-17T15:03:18.260Z,12.6
2022-08-17T15:08:05.699Z,14.5
2022-08-17T15:13:11.996Z,14.3
2022-08-17T15:18:18.458Z,16.4
2022-08-17T15:23:44.969Z,15.7
2022-08-17T15:28:31.308Z,16.1
2022-08-17T15:33:37.758Z,13.2
2022-08-17T15:38:44.515Z,15.1
2022-08-17T15:43:50.561Z,17.1
2022-08-17T15:48:56.951Z,17.1
2022-08-17T15:54:04.462Z,16.1
2022-08-17T15:59:09.710Z,14.2
2022-08-17T16:04:36.198Z,15.3
2022-08-17T16:09:22.466Z,14.8
2022-08-17T16:14:33.952Z,17.7
2022-08-17T16:19:35.356Z,16.8
2022-08-17T16:24:45.934Z,14.9
2022-08-17T16:29:48.096Z,22.1
2022-08-17T16:34:54.501Z,21.1
2022-08-17T16:40:00.944Z,22.7
2022-08-17T16:45:11.210Z,24.3
2022-08-17T16:50:17.581Z,25.9
2022-08-17T16:56:26.841Z,24.6
2022-08-17T17:00:51.420Z,25.7
2022-08-17T17:05:40.832Z,25.7
2022-08-17T17:10:47.223Z,25.0
2022-08-17T17:16:17.640Z,24.9
2022-08-17T17:21:00.039Z,27.6
2022-08-17T17:26:06.414Z,26.5
2022-08-17T17:31:12.949Z,22.9
2022-08-17T17:36:19.378Z,20.6
2022-08-17T17:41:45.785Z,19.0
2022-08-17T17:46:32.143Z,20.5
2022-08-17T17:52:06.525Z,20.7
2022-08-17T17:56:45.311Z,18.5
2022-08-17T18:02:11.670Z,15.9
2022-08-17T18:06:57.947Z,16.1
2022-08-17T18:12:04.636Z,14.7
2022-08-17T18:17:10.757Z,13.7
2022-08-17T18:22:17.099Z,15.0
2022-08-17T18:27:23.527Z,14.0
2022-08-17T18:32:29.929Z,17.3
2022-08-17T18:37:36.386Z,16.9
2022-08-17T18:42:42.781Z,15.8
2022-08-17T18:47:49.263Z,17.6
2022-08-17T18:53:19.606Z,17.4
2022-08-17T18:58:01.949Z,17.9
2022-08-17T19:03:08.334Z,17.3
2022-08-17T19:08:14.774Z,17.7
2022-08-17T19:13:23.823Z,13.5
2022-08-17T19:18:27.655Z,14.3
2022-08-17T19:23:54.642Z,9.7
2022-08-17T19:29:04.468Z,8.2
2022-08-17T19:33:50.391Z,7.9
2022-08-17T19:38:56.876Z,7.4
2022-08-17T19:44:04.845Z,6.0
2022-08-17T19:49:11.215Z,8.6
2022-08-17T19:54:17.586Z,6.8
2022-08-17T19:59:24.061Z,7.4
2022-08-17T20:04:32.646Z,5.3
2022-08-17T20:09:37.687Z,4.9
2022-08-17T20:14:55.062Z,4.5
2022-08-17T20:19:50.458Z,5.7
2022-08-17T20:24:56.981Z,4.4
2022-08-17T20:30:03.423Z,5.5
2022-08-17T20:35:09.871Z,7.1
2022-08-17T20:40:16.314Z,7.2
2022-08-17T20:45:22.800Z,7.7
2022-08-17T20:50:33.830Z,5.9
2022-08-17T20:55:52.565Z,7.9
2022-08-17T21:00:50.920Z,7.2
2022-08-17T21:05:53.222Z,9.1
2022-08-17T21:10:59.606Z,10.4
2022-08-17T21:16:05.980Z,8.7
2022-08-17T21:21:17.448Z,9.1
2022-08-17T21:26:20.373Z,8.9
2022-08-17T21:31:30.747Z,10.0
2022-08-17T21:36:37.120Z,10.4
2022-08-17T21:41:45.050Z,11.9
2022-08-17T21:46:47.465Z,10.2
2022-08-17T21:51:55.403Z,10.8
2022-08-17T21:57:05.784Z,11.8
2022-08-17T22:02:32.248Z,9.2
2022-08-17T22:07:38.576Z,9.5
2022-08-17T22:12:22.510Z,10.4
2022-08-17T22:17:28.906Z,12.4
2022-08-17T22:22:35.322Z,11.2
2022-08-17T22:27:41.829Z,11.9
2022-08-17T22:32:48.214Z,13.4
2022-08-17T22:37:54.598Z,14.8
2022-08-17T22:43:02.558Z,15.1
2022-08-17T22:48:08.925Z,14.1
2022-08-17T22:53:15.314Z,19.5
2022-08-17T22:58:25.698Z,17.6
2022-08-17T23:03:32.070Z,19.2
2022-08-17T23:08:24.430Z,21.7
2022-08-17T23:13:40.851Z,24.9
2022-08-17T23:18:47.410Z,25.0
2022-08-17T23:23:57.818Z,25.5
2022-08-17T23:29:00.376Z,28.6
2022-08-17T23:34:06.766Z,24.3
2022-08-17T23:39:13.375Z,25.6
2022-08-17T23:44:21.324Z,26.2
2022-08-17T23:49:27.695Z,35.9
2022-08-17T23:54:58.125Z,36.8
2022-08-17T23:59:40.448Z,36.7
